createdAt,value
2023-12-30T00:00:38.437Z,50.58
2023-12-30T00:03:05.828Z,55.63
2023-12-30T00:05:33.141Z,53.20
2023-12-30T00:08:00.112Z,52.00
2023-12-30T00:10:27.181Z,54.80
2023-12-30T00:12:54.219Z,54.65
2023-12-30T00:15:22.307Z,55.58
2023-12-30T00:17:49.458Z,52.88
2023-12-30T00:20:16.477Z,55.42
2023-12-30T00:22:43.368Z,53.40
2023-12-30T00:25:11.538Z,54.45
2023-12-30T00:27:38.834Z,54.60
2023-12-30T00:30:06.703Z,55.05
2023-12-30T00:32:34.185Z,52.47
2023-12-30T00:35:01.317Z,52.63
2023-12-30T00:37:28.454Z,51.33
2023-12-30T00:39:55.531Z,50.47
2023-12-30T00:42:22.502Z,51.05
2023-12-30T00:44:49.497Z,51.67
2023-12-30T00:47:16.463Z,46.10
2023-12-30T00:49:43.424Z,46.65
2023-12-30T00:52:11.190Z,46.85
2023-12-30T00:54:44.620Z,49.13
2023-12-30T00:57:17.394Z,55.90
2023-12-30T00:59:44.287Z,47.22
2023-12-30T01:02:11.456Z,43.35
2023-12-30T01:04:38.569Z,35.00
2023-12-30T01:07:05.630Z,34.42
2023-12-30T01:09:32.729Z,35.97
2023-12-30T01:11:59.792Z,35.22
2023-12-30T01:14:26.778Z,36.42
2023-12-30T01:16:53.762Z,35.92
2023-12-30T01:19:21.280Z,35.03
2023-12-30T01:21:49.225Z,34.03
2023-12-30T01:24:16.888Z,33.50
2023-12-30T01:26:44.503Z,31.30
2023-12-30T01:29:11.743Z,30.17
2023-12-30T01:31:38.695Z,28.13
2023-12-30T01:34:05.739Z,27.52
2023-12-30T01:36:32.711Z,25.83
2023-12-30T01:38:59.660Z,24.77
2023-12-30T01:41:26.722Z,21.15
2023-12-30T01:43:53.622Z,21.52
2023-12-30T01:46:20.741Z,21.45
2023-12-30T01:48:48.136Z,24.00
2023-12-30T01:51:24.584Z,29.02
2023-12-30T01:53:53.880Z,30.75
2023-12-30T01:56:23.022Z,28.50
2023-12-30T01:58:52.811Z,24.77
2023-12-30T02:01:24.164Z,23.63
2023-12-30T02:03:51.688Z,26.52
2023-12-30T02:06:18.711Z,27.80
2023-12-30T02:08:46.651Z,24.00
2023-12-30T02:11:16.098Z,21.02
2023-12-30T02:13:43.854Z,23.42
2023-12-30T02:16:11.774Z,22.05
2023-12-30T02:18:39.686Z,20.40
2023-12-30T02:21:06.819Z,21.75
2023-12-30T02:23:33.743Z,21.75
2023-12-30T02:26:00.679Z,21.13
2023-12-30T02:28:27.788Z,22.67
2023-12-30T02:30:54.894Z,19.55
2023-12-30T02:33:22.001Z,20.08
2023-12-30T02:35:48.935Z,20.05
2023-12-30T02:38:15.927Z,22.35
2023-12-30T02:40:42.823Z,19.90
2023-12-30T02:43:09.843Z,18.48
2023-12-30T02:45:36.942Z,18.85
2023-12-30T02:48:04.422Z,19.33
2023-12-30T02:50:31.394Z,20.13
2023-12-30T02:52:58.364Z,18.75
2023-12-30T02:55:25.427Z,18.75
2023-12-30T02:57:52.475Z,20.50
2023-12-30T03:00:19.817Z,17.63
2023-12-30T03:02:47.307Z,16.98
2023-12-30T03:05:14.720Z,15.98
2023-12-30T03:07:41.998Z,16.10
2023-12-30T03:10:09.647Z,18.25
2023-12-30T03:12:36.779Z,19.13
2023-12-30T03:15:03.903Z,16.40
2023-12-30T03:17:30.965Z,17.80
2023-12-30T03:19:57.949Z,19.20
2023-12-30T03:22:26.129Z,20.85
2023-12-30T03:24:53.312Z,20.23
2023-12-30T03:27:20.322Z,19.48
2023-12-30T03:29:47.293Z,19.13
2023-12-30T03:32:14.659Z,20.60
2023-12-30T03:34:41.677Z,20.25
2023-12-30T03:37:08.684Z,20.67
2023-12-30T03:39:35.665Z,17.88
2023-12-30T03:42:02.644Z,18.95
2023-12-30T03:44:29.548Z,20.02
2023-12-30T03:46:56.792Z,21.35
2023-12-30T03:49:25.269Z,20.92
2023-12-30T03:51:52.302Z,21.48
2023-12-30T03:54:19.405Z,25.52
2023-12-30T03:56:48.298Z,26.70
2023-12-30T03:59:15.247Z,29.10
2023-12-30T04:01:44.353Z,31.95
2023-12-30T04:04:11.592Z,32.80
2023-12-30T04:06:38.872Z,30.17
2023-12-30T04:09:05.827Z,29.42
2023-12-30T04:11:32.869Z,28.42
2023-12-30T04:13:59.890Z,27.65
2023-12-30T04:16:26.840Z,26.90
2023-12-30T04:18:53.930Z,25.10
2023-12-30T04:21:21.233Z,22.45
2023-12-30T04:23:48.192Z,23.55
2023-12-30T04:26:15.111Z,23.85
2023-12-30T04:28:41.991Z,23.30
2023-12-30T04:31:09.164Z,22.85
2023-12-30T04:33:36.682Z,19.15
2023-12-30T04:36:04.038Z,23.65
2023-12-30T04:38:30.967Z,21.00
2023-12-30T04:40:57.862Z,18.02
2023-12-30T04:43:24.864Z,16.83
2023-12-30T04:45:51.957Z,16.20
2023-12-30T04:48:19.006Z,16.60
2023-12-30T04:50:46.131Z,16.52
2023-12-30T04:53:13.059Z,19.15
2023-12-30T04:55:40.110Z,21.13
2023-12-30T04:58:07.153Z,18.30
2023-12-30T05:00:34.826Z,19.50
2023-12-30T05:03:02.057Z,19.83
2023-12-30T05:05:29.323Z,18.80
2023-12-30T05:07:56.413Z,17.42
2023-12-30T05:10:23.429Z,19.95
2023-12-30T05:12:51.190Z,17.88
2023-12-30T05:15:18.337Z,21.10
2023-12-30T05:17:45.563Z,20.17
2023-12-30T05:20:13.996Z,18.63
2023-12-30T05:22:41.770Z,19.23
2023-12-30T05:25:08.962Z,18.73
2023-12-30T05:27:36.702Z,19.60
2023-12-30T05:30:05.247Z,21.55
2023-12-30T05:32:32.376Z,21.42
2023-12-30T05:34:59.419Z,22.63
2023-12-30T05:37:26.555Z,22.55
2023-12-30T05:39:53.447Z,24.33
2023-12-30T05:42:20.640Z,22.58
2023-12-30T05:44:48.932Z,20.88
2023-12-30T05:47:15.998Z,21.65
2023-12-30T05:49:42.921Z,21.33
2023-12-30T05:52:10.098Z,21.48
2023-12-30T05:54:37.030Z,20.70
2023-12-30T05:57:04.245Z,22.08
2023-12-30T05:59:31.216Z,24.95
2023-12-30T06:01:59.959Z,26.73
2023-12-30T06:04:27.212Z,26.05
2023-12-30T06:06:54.309Z,29.08
2023-12-30T06:09:21.309Z,28.38
2023-12-30T06:11:48.845Z,28.40
2023-12-30T06:14:16.802Z,31.92
2023-12-30T06:16:43.822Z,35.50
2023-12-30T06:19:12.175Z,34.80
2023-12-30T06:21:39.834Z,26.77
2023-12-30T06:24:07.021Z,29.52
2023-12-30T06:26:38.264Z,25.23
2023-12-30T06:29:06.818Z,23.88
2023-12-30T06:31:34.166Z,23.88
2023-12-30T06:34:01.232Z,22.33
2023-12-30T06:36:28.187Z,19.08
2023-12-30T06:38:55.123Z,21.15
2023-12-30T06:41:22.117Z,20.05
2023-12-30T06:43:49.442Z,22.05
2023-12-30T06:46:20.120Z,20.83
2023-12-30T06:48:47.803Z,27.27
2023-12-30T06:51:14.933Z,28.77
2023-12-30T06:53:41.825Z,26.20
2023-12-30T06:56:09.435Z,23.60
2023-12-30T06:58:37.122Z,25.48
2023-12-30T07:01:06.073Z,23.58
2023-12-30T07:03:33.596Z,19.88
2023-12-30T07:06:00.587Z,18.17
2023-12-30T07:08:27.616Z,23.60
2023-12-30T07:10:54.612Z,24.77
2023-12-30T07:13:21.768Z,26.52
2023-12-30T07:15:48.929Z,30.17
2023-12-30T07:18:15.971Z,42.10
2023-12-30T07:20:42.979Z,39.47
2023-12-30T07:23:09.975Z,39.35
2023-12-30T07:25:36.984Z,34.67
2023-12-30T07:28:04.276Z,35.95
2023-12-30T07:30:31.279Z,36.08
2023-12-30T07:32:58.400Z,34.97
2023-12-30T07:35:25.566Z,24.33
2023-12-30T07:37:52.506Z,21.75
2023-12-30T07:40:19.474Z,26.13
2023-12-30T07:42:46.445Z,23.58
2023-12-30T07:45:14.075Z,23.88
2023-12-30T07:47:41.071Z,28.33
2023-12-30T07:50:08.829Z,26.50
2023-12-30T07:52:36.154Z,23.85
2023-12-30T07:55:03.226Z,24.38
2023-12-30T07:57:30.186Z,27.85
2023-12-30T07:59:57.288Z,14.15
2023-12-30T08:02:24.335Z,28.98
2023-12-30T08:04:51.333Z,41.67
2023-12-30T08:07:18.481Z,19.73
2023-12-30T08:09:45.457Z,26.23
2023-12-30T08:12:13.068Z,38.17
2023-12-30T08:14:40.010Z,30.55
2023-12-30T08:17:06.956Z,35.33
2023-12-30T08:19:34.013Z,40.63
2023-12-30T08:22:00.987Z,37.60
2023-12-30T08:24:29.884Z,42.47
2023-12-30T08:26:56.990Z,44.75
2023-12-30T08:29:24.101Z,46.50
2023-12-30T08:31:51.148Z,27.38
2023-12-30T08:34:18.476Z,40.45
2023-12-30T08:36:46.156Z,28.33
2023-12-30T08:39:13.821Z,26.38
2023-12-30T08:41:42.692Z,39.13
2023-12-30T08:44:09.974Z,39.67
2023-12-30T08:46:37.475Z,38.83
2023-12-30T08:49:07.374Z,32.45
2023-12-30T08:51:36.132Z,27.17
2023-12-30T08:54:03.241Z,41.75
2023-12-30T08:56:37.387Z,36.67
2023-12-30T08:59:04.441Z,28.40
2023-12-30T09:01:31.897Z,48.35
2023-12-30T09:04:01.145Z,55.30
2023-12-30T09:06:28.277Z,61.28
2023-12-30T09:08:55.162Z,55.65
2023-12-30T09:11:23.506Z,45.97
2023-12-30T09:13:53.144Z,48.33
2023-12-30T09:16:20.426Z,44.88
2023-12-30T09:18:47.795Z,42.63
2023-12-30T09:21:15.113Z,44.75
2023-12-30T09:23:42.349Z,39.22
2023-12-30T09:26:09.704Z,45.88
2023-12-30T09:28:36.909Z,49.25
2023-12-30T09:31:04.387Z,46.78
2023-12-30T09:33:32.180Z,45.33
2023-12-30T09:35:59.814Z,41.85
2023-12-30T09:38:27.238Z,41.00
2023-12-30T09:40:55.787Z,38.42
2023-12-30T09:43:28.154Z,42.03
2023-12-30T09:45:57.211Z,42.92
2023-12-30T09:48:26.831Z,47.13
2023-12-30T09:51:00.854Z,50.00
2023-12-30T09:53:28.337Z,54.67
2023-12-30T09:55:55.781Z,61.83
2023-12-30T09:58:23.852Z,63.53
2023-12-30T10:00:51.435Z,72.32
2023-12-30T10:03:20.269Z,73.80
2023-12-30T10:05:48.598Z,78.53
2023-12-30T10:08:16.918Z,69.35
2023-12-30T10:10:48.424Z,55.45
2023-12-30T10:13:23.749Z,59.25
2023-12-30T10:15:52.544Z,61.50
2023-12-30T10:18:20.657Z,58.40
2023-12-30T10:20:48.475Z,60.03
2023-12-30T10:23:15.793Z,59.05
2023-12-30T10:25:43.132Z,58.05
2023-12-30T10:28:18.492Z,26.98
2023-12-30T10:30:45.731Z,33.50
2023-12-30T10:33:14.855Z,27.30
2023-12-30T10:35:44.822Z,22.80
2023-12-30T10:38:14.255Z,17.95
2023-12-30T10:40:42.046Z,17.88
2023-12-30T10:43:10.226Z,6.28
2023-12-30T10:45:38.723Z,8.50
2023-12-30T10:48:08.201Z,4.25
2023-12-30T10:50:40.301Z,2.88
2023-12-30T10:53:31.022Z,2.58
2023-12-30T10:56:03.739Z,2.25
2023-12-30T10:58:38.319Z,2.00
2023-12-30T11:01:06.427Z,1.75
2023-12-30T11:03:35.411Z,1.88
2023-12-30T11:06:16.505Z,2.17
2023-12-30T11:08:45.338Z,1.70
2023-12-30T11:11:15.846Z,1.90
2023-12-30T11:13:43.579Z,1.50
2023-12-30T11:16:17.392Z,1.70
2023-12-30T11:18:53.541Z,1.88
2023-12-30T11:21:47.974Z,2.13
2023-12-30T11:24:19.041Z,1.70
2023-12-30T11:26:47.347Z,1.80
2023-12-30T11:29:18.337Z,1.92
2023-12-30T11:31:47.421Z,1.88
2023-12-30T11:34:19.118Z,1.60
2023-12-30T11:36:49.619Z,1.70
2023-12-30T11:39:31.321Z,4.10
2023-12-30T11:41:59.733Z,3.22
2023-12-30T11:44:28.951Z,1.30
2023-12-30T11:46:56.135Z,1.58
2023-12-30T11:49:25.368Z,1.90
2023-12-30T11:52:01.446Z,4.57
2023-12-30T11:54:28.498Z,5.93
2023-12-30T11:56:55.532Z,7.03
2023-12-30T11:59:22.505Z,7.60
2023-12-30T12:01:49.501Z,3.50
2023-12-30T12:04:16.583Z,9.90
2023-12-30T12:06:43.589Z,8.40
2023-12-30T12:09:11.552Z,4.00
2023-12-30T12:11:39.544Z,3.75
2023-12-30T12:14:06.473Z,3.45
2023-12-30T12:16:35.355Z,3.05
2023-12-30T12:19:06.236Z,3.20
2023-12-30T12:21:33.315Z,30.00
2023-12-30T12:24:00.245Z,6.45
2023-12-30T12:26:28.069Z,3.92
2023-12-30T12:28:56.646Z,4.13
2023-12-30T12:31:28.969Z,5.47
2023-12-30T12:33:56.091Z,10.95
2023-12-30T12:36:24.080Z,8.88
2023-12-30T12:38:51.644Z,10.75
2023-12-30T12:41:18.583Z,9.25
2023-12-30T12:43:46.134Z,8.60
2023-12-30T12:46:20.936Z,11.20
2023-12-30T12:48:48.098Z,16.75
2023-12-30T12:51:15.106Z,13.55
2023-12-30T12:53:42.749Z,14.13
2023-12-30T12:56:09.954Z,15.38
2023-12-30T12:58:37.026Z,14.63
2023-12-30T13:01:04.942Z,13.18
2023-12-30T13:03:32.121Z,16.55
2023-12-30T13:06:00.974Z,24.52
2023-12-30T13:08:31.190Z,24.25
2023-12-30T13:10:59.343Z,25.83
2023-12-30T13:13:26.639Z,23.17
2023-12-30T13:15:56.172Z,26.67
2023-12-30T13:18:24.021Z,24.55
2023-12-30T13:20:51.159Z,22.98
2023-12-30T13:23:18.230Z,23.42
2023-12-30T13:25:45.631Z,28.25
2023-12-30T13:28:13.307Z,27.13
2023-12-30T13:30:41.796Z,28.55
2023-12-30T13:33:11.846Z,28.17
2023-12-30T13:35:39.876Z,26.83
2023-12-30T13:38:17.078Z,27.10
2023-12-30T13:40:45.712Z,27.05
2023-12-30T13:43:13.458Z,27.23
2023-12-30T13:45:47.915Z,29.75
2023-12-30T13:48:21.882Z,36.47
2023-12-30T13:50:56.068Z,53.08
2023-12-30T13:53:25.395Z,37.80
2023-12-30T13:55:59.598Z,38.33
2023-12-30T13:58:26.730Z,35.50
2023-12-30T14:00:55.854Z,34.25
2023-12-30T14:03:25.005Z,35.25
2023-12-30T14:05:52.138Z,40.17
2023-12-30T14:08:26.384Z,46.22
2023-12-30T14:10:55.294Z,39.38
2023-12-30T14:13:24.640Z,38.30
2023-12-30T14:15:52.822Z,40.50
2023-12-30T14:18:20.464Z,40.13
2023-12-30T14:20:48.088Z,39.08
2023-12-30T14:23:15.488Z,39.70
2023-12-30T14:25:43.198Z,42.85
2023-12-30T14:28:11.184Z,40.13
2023-12-30T14:30:39.949Z,42.83
2023-12-30T14:33:07.648Z,42.95
2023-12-30T14:35:34.958Z,40.08
2023-12-30T14:38:03.846Z,43.47
2023-12-30T14:40:30.901Z,36.25
2023-12-30T14:42:57.997Z,38.38
2023-12-30T14:45:25.057Z,40.30
2023-12-30T14:47:52.111Z,36.80
2023-12-30T14:50:19.212Z,33.10
2023-12-30T14:52:46.280Z,30.08
2023-12-30T14:55:13.693Z,30.58
2023-12-30T14:57:41.926Z,27.67
2023-12-30T15:00:21.566Z,27.00
2023-12-30T15:02:48.753Z,26.88
2023-12-30T15:05:16.525Z,24.77
2023-12-30T15:07:47.545Z,23.98
2023-12-30T15:10:16.628Z,20.40
2023-12-30T15:12:47.327Z,21.23
2023-12-30T15:15:14.991Z,30.63
2023-12-30T15:17:42.686Z,25.02
2023-12-30T15:20:10.485Z,24.73
2023-12-30T15:22:39.196Z,29.17
2023-12-30T15:25:07.130Z,30.20
2023-12-30T15:27:34.353Z,29.20
2023-12-30T15:30:01.490Z,33.55
2023-12-30T15:32:28.667Z,27.15
2023-12-30T15:34:56.057Z,30.23
2023-12-30T15:37:23.740Z,29.40
2023-12-30T15:39:51.064Z,27.25
2023-12-30T15:42:18.064Z,27.25
2023-12-30T15:44:45.054Z,28.17
2023-12-30T15:47:13.160Z,31.75
2023-12-30T15:49:41.613Z,37.53
2023-12-30T15:52:11.162Z,36.50
2023-12-30T15:54:39.767Z,36.13
2023-12-30T15:57:06.952Z,37.72
2023-12-30T15:59:33.891Z,41.25
2023-12-30T16:02:01.413Z,39.53
2023-12-30T16:04:28.940Z,55.20
2023-12-30T16:06:56.807Z,64.13
2023-12-30T16:09:23.750Z,108.20
2023-12-30T16:11:50.785Z,71.32
2023-12-30T16:14:17.701Z,56.63
2023-12-30T16:16:47.931Z,45.85
2023-12-30T16:19:16.800Z,44.83
2023-12-30T16:21:45.921Z,47.75
2023-12-30T16:24:14.650Z,39.60
2023-12-30T16:26:42.071Z,43.13
2023-12-30T16:29:09.726Z,41.92
2023-12-30T16:31:36.740Z,38.38
2023-12-30T16:34:04.855Z,39.33
2023-12-30T16:36:34.250Z,55.97
2023-12-30T16:39:02.278Z,86.82
2023-12-30T16:41:29.534Z,91.55
2023-12-30T16:43:56.540Z,58.38
2023-12-30T16:46:23.591Z,45.85
2023-12-30T16:48:54.689Z,52.85
2023-12-30T16:51:21.932Z,88.72
2023-12-30T16:53:49.202Z,108.13
2023-12-30T16:56:19.461Z,102.22
2023-12-30T16:58:46.574Z,98.03
2023-12-30T17:01:14.355Z,90.35
2023-12-30T17:03:41.388Z,71.32
2023-12-30T17:06:08.421Z,70.93
2023-12-30T17:08:35.372Z,113.75
2023-12-30T17:11:02.333Z,66.68
2023-12-30T17:13:35.275Z,64.72
2023-12-30T17:16:07.373Z,56.83
2023-12-30T17:18:34.418Z,42.92
2023-12-30T17:21:01.294Z,50.88
2023-12-30T17:23:28.206Z,67.47
2023-12-30T17:25:55.166Z,200.70
2023-12-30T17:28:22.529Z,122.22
2023-12-30T17:30:49.822Z,71.03
2023-12-30T17:33:17.001Z,78.20
2023-12-30T17:35:44.429Z,98.18
2023-12-30T17:38:11.508Z,129.13
2023-12-30T17:40:38.824Z,121.43
2023-12-30T17:43:06.440Z,125.47
2023-12-30T17:45:33.550Z,154.68
2023-12-30T17:48:00.521Z,172.18
2023-12-30T17:50:27.567Z,171.15
2023-12-30T17:52:54.526Z,156.02
2023-12-30T17:55:21.671Z,138.43
2023-12-30T17:57:48.816Z,134.52
2023-12-30T18:00:17.469Z,159.88
2023-12-30T18:02:44.540Z,142.02
2023-12-30T18:05:13.008Z,138.80
2023-12-30T18:07:40.230Z,133.70
2023-12-30T18:10:07.682Z,100.32
2023-12-30T18:12:34.717Z,108.63
2023-12-30T18:15:01.751Z,97.68
2023-12-30T18:17:28.924Z,88.55
2023-12-30T18:19:56.129Z,107.80
2023-12-30T18:22:23.193Z,137.73
2023-12-30T18:24:50.346Z,114.10
2023-12-30T18:27:17.316Z,93.40
2023-12-30T18:29:44.537Z,116.53
2023-12-30T18:32:12.033Z,146.90
2023-12-30T18:34:41.170Z,141.20
2023-12-30T18:37:15.088Z,142.00
2023-12-30T18:39:42.454Z,122.68
2023-12-30T18:42:09.866Z,127.55
2023-12-30T18:44:36.914Z,116.60
2023-12-30T18:47:03.865Z,119.82
2023-12-30T18:49:31.175Z,104.05
2023-12-30T18:51:58.451Z,79.03
2023-12-30T18:54:25.353Z,101.53
2023-12-30T18:56:52.314Z,106.28
2023-12-30T18:59:19.317Z,111.05
2023-12-30T19:01:47.049Z,114.65
2023-12-30T19:04:14.731Z,121.25
2023-12-30T19:06:41.748Z,114.03
2023-12-30T19:09:09.840Z,116.60
2023-12-30T19:11:36.800Z,112.47
2023-12-30T19:14:04.200Z,116.35
2023-12-30T19:16:31.467Z,112.07
2023-12-30T19:18:59.250Z,116.05
2023-12-30T19:21:26.526Z,92.45
2023-12-30T19:23:53.703Z,106.05
2023-12-30T19:26:20.815Z,111.38
2023-12-30T19:28:47.886Z,103.85
2023-12-30T19:31:15.065Z,102.65
2023-12-30T19:33:43.284Z,109.00
2023-12-30T19:36:11.573Z,93.15
2023-12-30T19:38:39.260Z,112.72
2023-12-30T19:41:06.226Z,117.25
2023-12-30T19:43:35.329Z,120.20
2023-12-30T19:46:06.899Z,106.50
2023-12-30T19:48:37.112Z,108.43
2023-12-30T19:51:05.512Z,107.68
2023-12-30T19:53:34.118Z,94.65
2023-12-30T19:56:02.692Z,87.72
2023-12-30T19:58:32.052Z,81.85
2023-12-30T20:00:59.340Z,85.07
2023-12-30T20:03:26.781Z,81.53
2023-12-30T20:05:54.054Z,80.72
2023-12-30T20:08:21.202Z,91.68
2023-12-30T20:10:49.013Z,99.85
2023-12-30T20:13:16.139Z,101.97
2023-12-30T20:15:43.516Z,100.90
2023-12-30T20:18:10.581Z,111.43
2023-12-30T20:20:37.743Z,145.70
2023-12-30T20:23:04.931Z,104.25
2023-12-30T20:25:32.702Z,97.38
2023-12-30T20:27:59.861Z,102.40
2023-12-30T20:30:31.773Z,105.90
2023-12-30T20:32:59.988Z,122.75
2023-12-30T20:35:27.110Z,114.75
2023-12-30T20:37:54.060Z,123.07
2023-12-30T20:40:21.126Z,108.13
2023-12-30T20:42:48.051Z,94.43
2023-12-30T20:45:15.928Z,85.10
2023-12-30T20:47:42.847Z,92.63
2023-12-30T20:50:09.958Z,93.43
2023-12-30T20:52:39.796Z,95.97
2023-12-30T20:55:07.735Z,103.95
2023-12-30T20:57:35.393Z,104.93
2023-12-30T21:00:02.557Z,109.15
2023-12-30T21:02:29.646Z,109.88
2023-12-30T21:04:58.081Z,105.22
2023-12-30T21:07:25.237Z,104.45
2023-12-30T21:09:52.288Z,89.65
2023-12-30T21:12:26.508Z,82.32
2023-12-30T21:14:53.689Z,82.00
2023-12-30T21:17:20.670Z,78.13
2023-12-30T21:19:49.612Z,79.93
2023-12-30T21:22:16.720Z,78.60
2023-12-30T21:24:43.716Z,78.80
2023-12-30T21:27:11.975Z,82.85
2023-12-30T21:29:40.945Z,85.30
2023-12-30T21:32:08.978Z,81.65
2023-12-30T21:34:36.495Z,98.88
2023-12-30T21:37:03.628Z,100.95
2023-12-30T21:39:30.631Z,95.47
2023-12-30T21:41:58.357Z,95.70
2023-12-30T21:44:25.232Z,101.82
2023-12-30T21:46:52.228Z,110.10
2023-12-30T21:49:19.902Z,121.22
2023-12-30T21:51:47.061Z,118.13
2023-12-30T21:54:14.992Z,127.07
2023-12-30T21:56:42.794Z,125.93
2023-12-30T21:59:10.886Z,123.43
2023-12-30T22:01:38.075Z,131.05
2023-12-30T22:04:05.634Z,114.38
2023-12-30T22:06:33.990Z,102.45
2023-12-30T22:09:01.248Z,101.88
2023-12-30T22:11:28.775Z,100.70
2023-12-30T22:13:57.062Z,98.03
2023-12-30T22:16:24.266Z,88.50
2023-12-30T22:18:51.464Z,97.82
2023-12-30T22:21:19.019Z,94.82
2023-12-30T22:23:46.383Z,95.72
2023-12-30T22:26:13.393Z,80.60
2023-12-30T22:28:40.365Z,71.35
2023-12-30T22:31:09.055Z,64.18
2023-12-30T22:33:37.145Z,65.00
2023-12-30T22:36:04.491Z,61.80
2023-12-30T22:38:31.646Z,58.63
2023-12-30T22:40:58.706Z,61.20
2023-12-30T22:43:25.778Z,63.42
2023-12-30T22:45:52.798Z,63.47
2023-12-30T22:48:22.861Z,61.47
2023-12-30T22:50:53.084Z,53.45
2023-12-30T22:53:20.082Z,56.63
2023-12-30T22:55:47.174Z,55.63
2023-12-30T22:58:14.130Z,45.45
2023-12-30T23:00:41.167Z,37.03
2023-12-30T23:03:08.529Z,35.35
2023-12-30T23:05:37.905Z,33.28
2023-12-30T23:08:05.175Z,32.35
2023-12-30T23:10:33.591Z,35.67
2023-12-30T23:13:01.540Z,32.28
2023-12-30T23:15:28.743Z,33.67
2023-12-30T23:17:56.483Z,32.97
2023-12-30T23:20:26.765Z,28.08
2023-12-30T23:22:53.770Z,32.20
2023-12-30T23:25:20.720Z,19.00
2023-12-30T23:27:50.630Z,21.20
2023-12-30T23:30:17.643Z,18.15
2023-12-30T23:32:47.515Z,18.38
2023-12-30T23:35:14.572Z,13.20
2023-12-30T23:37:41.535Z,17.42
2023-12-30T23:40:10.073Z,16.33
2023-12-30T23:42:37.137Z,11.82
2023-12-30T23:45:06.081Z,12.43
2023-12-30T23:47:33.135Z,7.90
2023-12-30T23:50:00.173Z,8.65
2023-12-30T23:52:27.498Z,8.45
2023-12-30T23:54:55.418Z,6.88
2023-12-30T23:57:22.505Z,8.38
2023-12-30T23:59:49.582Z,10.98
